Valentine, NE

10:57 AM CDT on September 01, 2015 (GMT -0500)
Valentine EW3958 | | Change Station
CLOSE
Current Station
Personal Weather Station
Location: Valentine, NE
Elevation: 2590 ft
Nearby Weather Stations

Elev 2590 ft 42.88 °N, 100.56 °W | Updated 13 seconds ago

Scattered Clouds
Scattered Clouds
70.0 °F
Feels Like 70.0 °F
N
0.0
Wind Variable Wind from SSW
Gusts 0.0 mph

Today
High -- | Low -- °F
--% Chance of Precip.
Yesterday
High -- | Low -- °F
Precip. -- in
7:06 AM 8:17 PM
Waning Gibbous, 88% visible
Pressure 29.87 in
Visibility 10.0 miles
Clouds Scattered Clouds 11000 ft
Dew Point 66 °F
Humidity 88%
Rainfall 0.00 in
Snow Depth Not available.
UV 4 out of 12
Pollen 10.60 out of 12
Air Quality Not available.
Flu Activity Not available.
METAR KVTN 011552Z AUTO 00000KT 10SM SCT110 22/18 A2992 RMK AO2 RAB29E41 SLP115 P0000 T02170178
Pressure 29.87 in
Visibility 10.0 miles
Clouds Scattered Clouds 11000 ft
Dew Point 66 °F
Humidity 88%
Rainfall 0.00 in
Snow Depth Not available.
UV 4 out of 12
Pollen 10.60 out of 12
Air Quality Not available.
Flu Activity Not available.
METAR KVTN 011552Z AUTO 00000KT 10SM SCT110 22/18 A2992 RMK AO2 RAB29E41 SLP115 P0000 T02170178

10-Day Weather Forecast

×

Almanac

Astronomy

Sep. 01, 2015 Rise Set
Actual Time
Civil Twilight
Nautical Twilight
Astronomical Twilight
Moon
Length of Visible Light
Length of Day
Tomorrow will be .
, % of the Moon is Illuminated

Today's Extremes

State Highs State Lows

Community

WunderPhotos

Upload Photos

1,851,538 photos uploaded!

WunderBlogs® & News

Nearby

Air Quality

  Air Quality AQ Index Pollutant
Not available.

Snow Depth

Station Depth Elevation

Earthquake Activity

City Distance Mag. Time & Date
Minimum magnitude displayed is 2.5.

Coastal Water Temperatures

Place Temperature

Stations

Nearby Weather Stations

Station Location Temp. Windchill Dew Point Humidity Wind Precip. Elev Updated Type